createdAt,value
2018-06-21T00:00:58.596Z,99.99
2018-06-21T00:01:58.594Z,99.99
2018-06-21T00:02:58.542Z,99.99
2018-06-21T00:03:58.612Z,99.99
2018-06-21T00:04:58.627Z,99.99
2018-06-21T00:05:58.844Z,99.99
2018-06-21T00:06:58.561Z,99.99
2018-06-21T00:07:58.665Z,99.99
2018-06-21T00:08:58.663Z,99.99
2018-06-21T00:09:58.692Z,99.99
2018-06-21T00:10:58.612Z,99.99
2018-06-21T00:11:58.605Z,99.99
2018-06-21T00:12:58.609Z,99.99
2018-06-21T00:13:58.639Z,99.99
2018-06-21T00:14:58.612Z,99.99
2018-06-21T00:15:58.666Z,99.99
2018-06-21T00:16:58.560Z,99.99
2018-06-21T00:17:58.601Z,99.99
2018-06-21T00:18:58.662Z,99.99
2018-06-21T00:19:58.676Z,99.99
2018-06-21T00:20:58.669Z,99.99
2018-06-21T00:21:58.656Z,99.99
2018-06-21T00:22:58.672Z,99.99
2018-06-21T00:23:58.626Z,99.99
2018-06-21T00:24:58.613Z,99.99
2018-06-21T00:25:58.673Z,99.99
2018-06-21T00:26:58.617Z,99.99
2018-06-21T00:27:58.625Z,99.99
2018-06-21T00:28:58.658Z,99.99
2018-06-21T00:29:58.658Z,99.99
2018-06-21T00:30:58.643Z,99.99
2018-06-21T00:31:58.663Z,99.99
2018-06-21T00:32:58.660Z,99.99
2018-06-21T00:33:58.682Z,99.99
2018-06-21T00:34:58.678Z,99.99
2018-06-21T00:35:58.666Z,99.99
2018-06-21T00:36:58.661Z,99.99
2018-06-21T00:37:58.696Z,99.99
2018-06-21T00:38:58.670Z,99.99
2018-06-21T00:39:58.894Z,99.99
2018-06-21T00:40:58.674Z,99.99
2018-06-21T00:41:58.671Z,99.99
2018-06-21T00:42:59.575Z,99.99
2018-06-21T00:43:58.689Z,99.99
2018-06-21T00:44:58.715Z,99.99
2018-06-21T00:45:58.702Z,99.99
2018-06-21T00:46:58.741Z,99.99
2018-06-21T00:47:58.669Z,99.99
2018-06-21T00:48:58.760Z,99.99
2018-06-21T00:49:58.671Z,99.99
2018-06-21T00:50:58.684Z,99.99
2018-06-21T00:51:58.705Z,99.99
2018-06-21T00:52:58.716Z,99.99
2018-06-21T00:53:58.704Z,99.99
2018-06-21T00:54:58.675Z,99.99
2018-06-21T00:55:58.712Z,99.99
2018-06-21T00:56:58.702Z,99.99
2018-06-21T00:57:58.766Z,99.99
2018-06-21T00:58:58.669Z,99.99
2018-06-21T00:59:58.714Z,99.99
2018-06-21T01:00:58.768Z,99.99
2018-06-21T01:01:58.700Z,99.99
2018-06-21T01:02:58.760Z,99.99
2018-06-21T01:03:58.694Z,99.99
2018-06-21T01:04:58.746Z,99.99
2018-06-21T01:05:58.785Z,99.99
2018-06-21T01:06:58.795Z,99.99
2018-06-21T01:07:58.714Z,99.99
2018-06-21T01:08:58.785Z,99.99
2018-06-21T01:09:58.731Z,99.99
2018-06-21T01:10:58.733Z,99.99
2018-06-21T01:11:58.731Z,99.99
2018-06-21T01:12:58.756Z,99.99
2018-06-21T01:13:59.576Z,99.99
2018-06-21T01:14:58.743Z,99.99
2018-06-21T01:15:58.766Z,99.99
2018-06-21T01:16:58.732Z,99.99
2018-06-21T01:17:58.765Z,99.99
2018-06-21T01:18:58.746Z,99.99
2018-06-21T01:19:58.818Z,99.99
2018-06-21T01:20:58.780Z,99.99
2018-06-21T01:21:58.794Z,99.99
2018-06-21T01:22:59.159Z,99.99
2018-06-21T01:23:58.731Z,99.99
2018-06-21T01:24:58.775Z,99.99
2018-06-21T01:25:58.809Z,99.99
2018-06-21T01:26:58.826Z,99.99
2018-06-21T01:27:58.821Z,99.99
2018-06-21T01:28:58.860Z,99.99
2018-06-21T01:29:58.762Z,99.99
2018-06-21T01:30:58.786Z,99.99
2018-06-21T01:31:58.841Z,99.99
2018-06-21T01:32:58.801Z,99.99
2018-06-21T01:33:58.803Z,99.99
2018-06-21T01:34:58.789Z,99.99
2018-06-21T01:35:58.808Z,99.99
2018-06-21T01:36:58.850Z,99.99
2018-06-21T01:37:58.863Z,99.99
2018-06-21T01:38:58.822Z,99.99
2018-06-21T01:39:58.843Z,99.99
2018-06-21T01:40:58.797Z,99.99
2018-06-21T01:41:58.846Z,99.99
2018-06-21T01:42:58.787Z,99.99
2018-06-21T01:43:58.846Z,99.99
2018-06-21T01:44:58.838Z,99.99
2018-06-21T01:45:58.854Z,99.99
2018-06-21T01:46:58.810Z,99.99
2018-06-21T01:47:58.838Z,99.99
2018-06-21T01:48:58.866Z,99.99
2018-06-21T01:49:58.859Z,99.99
2018-06-21T01:50:58.857Z,99.99
2018-06-21T01:51:58.888Z,99.99
2018-06-21T01:52:58.869Z,99.99
2018-06-21T01:53:58.900Z,99.99
2018-06-21T01:54:58.876Z,99.99
2018-06-21T01:55:58.854Z,99.99
2018-06-21T01:56:58.896Z,99.99
2018-06-21T01:57:58.865Z,99.99
2018-06-21T01:58:58.885Z,99.99
2018-06-21T01:59:58.841Z,99.99
2018-06-21T02:00:58.845Z,99.99
2018-06-21T02:01:58.843Z,99.99
2018-06-21T02:02:58.882Z,99.99
2018-06-21T02:03:58.930Z,99.99
2018-06-21T02:04:58.883Z,99.99
2018-06-21T02:05:58.879Z,99.99
2018-06-21T02:06:58.857Z,99.99
2018-06-21T02:07:58.913Z,99.99
2018-06-21T02:08:58.969Z,99.99
2018-06-21T02:09:58.902Z,99.99
2018-06-21T02:10:59.014Z,99.99
2018-06-21T02:11:58.895Z,99.99
2018-06-21T02:12:58.905Z,99.99
2018-06-21T02:13:58.871Z,99.99
2018-06-21T02:14:58.907Z,99.99
2018-06-21T02:15:58.867Z,99.99
2018-06-21T02:16:58.946Z,99.99
2018-06-21T02:17:58.958Z,99.99
2018-06-21T02:18:58.933Z,99.99
2018-06-21T02:19:58.888Z,99.99
2018-06-21T02:20:58.939Z,99.99
2018-06-21T02:21:58.949Z,99.99
2018-06-21T02:22:58.915Z,99.99
2018-06-21T02:23:58.940Z,99.99
2018-06-21T02:24:58.908Z,99.99
2018-06-21T02:25:58.944Z,99.99
2018-06-21T02:26:58.904Z,99.99
2018-06-21T02:27:58.976Z,99.99
2018-06-21T02:28:58.958Z,99.99
2018-06-21T02:29:58.966Z,99.99
2018-06-21T02:30:58.956Z,99.99
2018-06-21T02:31:58.973Z,99.99
2018-06-21T02:32:58.908Z,99.99
2018-06-21T02:33:58.968Z,99.99
2018-06-21T02:34:58.998Z,99.99
2018-06-21T02:35:58.912Z,99.99
2018-06-21T02:36:58.952Z,99.99
2018-06-21T02:37:58.976Z,99.99
2018-06-21T02:38:58.930Z,99.99
2018-06-21T02:39:58.978Z,99.99
2018-06-21T02:40:58.982Z,99.99
2018-06-21T02:41:58.968Z,99.99
2018-06-21T02:42:59.252Z,99.99
2018-06-21T02:43:59.008Z,99.99
2018-06-21T02:44:59.610Z,99.99
2018-06-21T02:45:58.984Z,99.99
2018-06-21T02:46:58.984Z,99.99
2018-06-21T02:47:58.990Z,99.99
2018-06-21T02:48:59.037Z,99.99
2018-06-21T02:49:58.968Z,99.99
2018-06-21T02:50:58.978Z,99.99
2018-06-21T02:51:59.088Z,99.99
2018-06-21T02:52:59.013Z,99.99
2018-06-21T02:53:58.971Z,99.99
2018-06-21T02:54:58.996Z,99.99
2018-06-21T02:55:59.952Z,99.99
2018-06-21T02:56:59.271Z,99.99
2018-06-21T02:57:59.071Z,99.99
2018-06-21T02:58:59.177Z,99.99
2018-06-21T02:59:59.147Z,99.99
2018-06-21T03:00:59.650Z,99.99
2018-06-21T03:01:59.151Z,99.99
2018-06-21T03:02:59.914Z,99.99
2018-06-21T03:03:59.261Z,99.99
2018-06-21T03:04:59.009Z,99.99
2018-06-21T03:05:59.020Z,99.99
2018-06-21T03:06:59.068Z,99.99
2018-06-21T03:07:59.076Z,99.99
2018-06-21T03:08:59.043Z,99.99
2018-06-21T03:09:59.056Z,99.99
2018-06-21T03:10:59.019Z,99.99
2018-06-21T03:11:59.619Z,99.99
2018-06-21T03:12:59.061Z,99.99
2018-06-21T03:13:59.063Z,99.99
2018-06-21T03:14:59.058Z,99.99
2018-06-21T03:15:59.034Z,99.99
2018-06-21T03:16:59.035Z,99.99
2018-06-21T03:17:59.625Z,99.99
2018-06-21T03:18:59.210Z,99.99
2018-06-21T03:19:59.045Z,99.99
2018-06-21T03:20:59.040Z,99.99
2018-06-21T03:21:59.119Z,99.99
2018-06-21T03:22:59.330Z,99.99
2018-06-21T03:23:59.124Z,99.99
2018-06-21T03:24:59.094Z,99.99
2018-06-21T03:25:59.074Z,99.99
2018-06-21T03:26:59.072Z,99.99
2018-06-21T03:27:59.107Z,99.99
2018-06-21T03:28:59.091Z,99.99
2018-06-21T03:29:59.130Z,99.99
2018-06-21T03:30:59.100Z,99.99
2018-06-21T03:31:59.113Z,99.99
2018-06-21T03:32:59.096Z,99.99
2018-06-21T03:33:59.080Z,99.99
2018-06-21T03:34:59.081Z,99.99
2018-06-21T03:35:59.114Z,99.99
2018-06-21T03:36:59.113Z,99.99
2018-06-21T03:37:59.098Z,99.99
2018-06-21T03:38:59.117Z,99.99
2018-06-21T03:39:59.124Z,99.99
2018-06-21T03:40:59.079Z,99.99
2018-06-21T03:41:59.119Z,99.99
2018-06-21T03:42:59.117Z,99.99
2018-06-21T03:43:59.120Z,99.99
2018-06-21T03:44:59.091Z,99.99
2018-06-21T03:45:59.119Z,99.99
2018-06-21T03:46:59.138Z,99.99
2018-06-21T03:47:59.152Z,99.99
2018-06-21T03:49:00.138Z,99.99
2018-06-21T03:49:59.130Z,99.99
2018-06-21T03:50:59.127Z,99.99
2018-06-21T03:51:59.117Z,99.99
2018-06-21T03:52:59.202Z,99.99
2018-06-21T03:53:59.144Z,99.99
2018-06-21T03:54:59.123Z,99.99
2018-06-21T03:55:59.169Z,99.99
2018-06-21T03:56:59.194Z,99.99
2018-06-21T03:57:59.184Z,99.99
2018-06-21T03:58:59.155Z,99.99
2018-06-21T03:59:59.230Z,99.99
2018-06-21T04:00:59.188Z,99.99
2018-06-21T04:01:59.131Z,99.99
2018-06-21T04:02:59.313Z,99.99
2018-06-21T04:03:59.178Z,99.99
2018-06-21T04:04:59.146Z,99.99
2018-06-21T04:05:59.154Z,99.99
2018-06-21T04:06:59.199Z,99.99
2018-06-21T04:07:59.214Z,99.99
2018-06-21T04:08:59.181Z,99.99
2018-06-21T04:09:59.184Z,99.99
2018-06-21T04:10:59.154Z,99.99
2018-06-21T04:11:59.227Z,99.99
2018-06-21T04:12:59.230Z,99.99
2018-06-21T04:13:59.187Z,99.99
2018-06-21T04:14:59.197Z,99.99
2018-06-21T04:15:59.265Z,99.99
2018-06-21T04:16:59.204Z,99.99
2018-06-21T04:17:59.226Z,99.99
2018-06-21T04:18:59.212Z,99.99
2018-06-21T04:19:59.172Z,99.99
2018-06-21T04:20:59.212Z,99.99
2018-06-21T04:21:59.234Z,99.99
2018-06-21T04:22:59.217Z,99.99
2018-06-21T04:23:59.249Z,99.99
2018-06-21T04:24:59.238Z,99.99
2018-06-21T04:25:59.272Z,99.99
2018-06-21T04:26:59.234Z,99.99
2018-06-21T04:28:01.484Z,99.99
2018-06-21T04:28:59.242Z,99.99
2018-06-21T04:29:59.241Z,99.99
2018-06-21T04:30:59.295Z,99.99
2018-06-21T04:31:59.211Z,99.99
2018-06-21T04:32:59.197Z,99.99
2018-06-21T04:33:59.244Z,99.99
2018-06-21T04:34:59.249Z,99.99
2018-06-21T04:35:59.316Z,99.99
2018-06-21T04:36:59.294Z,99.99
2018-06-21T04:37:59.224Z,99.99
2018-06-21T04:38:59.255Z,99.99
2018-06-21T04:39:59.281Z,99.99
2018-06-21T04:40:59.284Z,99.99
2018-06-21T04:41:59.258Z,99.99
2018-06-21T04:42:59.303Z,99.99
2018-06-21T04:43:59.273Z,99.99
2018-06-21T04:44:59.267Z,99.99
2018-06-21T04:45:59.266Z,99.99
2018-06-21T04:46:59.260Z,99.99
2018-06-21T04:47:59.304Z,99.99
2018-06-21T04:48:59.299Z,99.99
2018-06-21T04:49:59.264Z,99.99
2018-06-21T04:50:59.293Z,99.99
2018-06-21T04:51:59.310Z,99.99
2018-06-21T04:52:59.276Z,99.99
2018-06-21T04:53:59.302Z,99.99
2018-06-21T04:54:59.262Z,99.99
2018-06-21T04:55:59.310Z,99.99
2018-06-21T04:56:59.330Z,99.99
2018-06-21T04:57:59.328Z,99.99
2018-06-21T04:58:59.327Z,99.99
2018-06-21T04:59:59.376Z,99.99
2018-06-21T05:00:59.300Z,99.99
2018-06-21T05:01:59.274Z,99.99
2018-06-21T05:02:59.312Z,99.99
2018-06-21T05:03:59.330Z,99.99
2018-06-21T05:04:59.353Z,99.99
2018-06-21T05:05:59.393Z,99.99
2018-06-21T05:06:59.350Z,99.99
2018-06-21T05:07:59.324Z,99.99
2018-06-21T05:08:59.412Z,99.99
2018-06-21T05:09:59.342Z,99.99
2018-06-21T05:10:59.351Z,99.99
2018-06-21T05:11:59.368Z,99.99
2018-06-21T05:12:59.373Z,99.99
2018-06-21T05:13:59.335Z,99.99
2018-06-21T05:14:59.363Z,99.99
2018-06-21T05:15:59.355Z,99.99
2018-06-21T05:16:59.313Z,99.99
2018-06-21T05:17:59.387Z,99.99
2018-06-21T05:18:59.406Z,99.99
2018-06-21T05:19:59.438Z,99.99
2018-06-21T05:20:59.349Z,99.99
2018-06-21T05:21:59.506Z,99.73
2018-06-21T05:22:59.375Z,98.77
2018-06-21T05:23:59.492Z,98.19
2018-06-21T05:24:59.414Z,97.91
2018-06-21T05:25:59.338Z,97.52
2018-06-21T05:26:59.386Z,97.62
2018-06-21T05:27:59.412Z,97.19
2018-06-21T05:28:59.446Z,96.51
2018-06-21T05:29:59.433Z,94.49
2018-06-21T05:30:59.428Z,94.59
2018-06-21T05:31:59.406Z,95.17
2018-06-21T05:32:59.373Z,93.92
2018-06-21T05:33:59.397Z,93.73
2018-06-21T05:34:59.403Z,92.38
2018-06-21T05:35:59.457Z,90.84
2018-06-21T05:36:59.387Z,90.37
2018-06-21T05:37:59.443Z,90.94
2018-06-21T05:38:59.415Z,90.56
2018-06-21T05:39:59.430Z,88.93
2018-06-21T05:40:59.539Z,88.25
2018-06-21T05:41:59.379Z,88.06
2018-06-21T05:43:00.180Z,88.73
2018-06-21T05:43:59.376Z,88.06
2018-06-21T05:44:59.403Z,88.16
2018-06-21T05:45:59.405Z,88.06
2018-06-21T05:46:59.467Z,87.68
2018-06-21T05:47:59.396Z,87.01
2018-06-21T05:48:59.464Z,87.01
2018-06-21T05:49:59.467Z,87.19
2018-06-21T05:50:59.633Z,87.19
2018-06-21T05:51:59.428Z,87.01
2018-06-21T05:52:59.540Z,87.29
2018-06-21T05:53:59.466Z,87.01
2018-06-21T05:54:59.548Z,88.35
2018-06-21T05:55:59.524Z,89.60
2018-06-21T05:56:59.463Z,91.28
2018-06-21T05:57:59.440Z,91.08
2018-06-21T05:58:59.457Z,91.56
2018-06-21T05:59:59.534Z,93.19
2018-06-21T06:00:59.543Z,94.54
2018-06-21T06:01:59.555Z,92.62
2018-06-21T06:02:59.492Z,92.38
2018-06-21T06:03:59.502Z,93.54
2018-06-21T06:04:59.496Z,93.63
2018-06-21T06:05:59.472Z,93.92
2018-06-21T06:06:59.483Z,91.33
2018-06-21T06:07:59.484Z,91.33
2018-06-21T06:08:59.549Z,91.42
2018-06-21T06:09:59.515Z,92.38
2018-06-21T06:10:59.488Z,92.33
2018-06-21T06:11:59.507Z,93.10
2018-06-21T06:13:01.877Z,92.43
2018-06-21T06:13:59.561Z,92.82
2018-06-21T06:14:59.582Z,92.63
2018-06-21T06:15:59.570Z,92.43
2018-06-21T06:16:59.513Z,92.05
2018-06-21T06:17:59.577Z,91.96
2018-06-21T06:18:59.527Z,92.63
2018-06-21T06:20:00.212Z,92.82
2018-06-21T06:20:59.536Z,92.91
2018-06-21T06:21:59.674Z,94.07
2018-06-21T06:22:59.519Z,94.54
2018-06-21T06:24:00.201Z,97.71
2018-06-21T06:24:59.530Z,98.38
2018-06-21T06:25:59.567Z,97.52
2018-06-21T06:26:59.552Z,95.98
2018-06-21T06:27:59.780Z,99.99
2018-06-21T06:28:59.536Z,99.99
2018-06-21T06:30:00.211Z,99.99
2018-06-21T06:30:59.666Z,98.86
2018-06-21T06:31:59.786Z,99.25
2018-06-21T06:32:59.522Z,98.38
2018-06-21T06:33:59.625Z,97.28
2018-06-21T06:34:59.962Z,99.68
2018-06-21T06:35:59.530Z,98.43
2018-06-21T06:36:59.670Z,97.66
2018-06-21T06:37:59.631Z,97.28
2018-06-21T06:38:59.605Z,97.76
2018-06-21T06:39:59.559Z,97.76
2018-06-21T06:40:59.564Z,96.80
2018-06-21T06:41:59.568Z,97.66
2018-06-21T06:42:59.880Z,98.43
2018-06-21T06:43:59.659Z,98.14
2018-06-21T06:44:59.606Z,97.76
2018-06-21T06:45:59.592Z,96.42
2018-06-21T06:46:59.583Z,97.28
2018-06-21T06:47:59.581Z,97.28
2018-06-21T06:48:59.613Z,97.38
2018-06-21T06:49:59.722Z,96.99
2018-06-21T06:50:59.652Z,96.32
2018-06-21T06:51:59.611Z,96.47
2018-06-21T06:52:59.553Z,97.24
2018-06-21T06:54:00.398Z,97.24
2018-06-21T06:54:59.564Z,96.94
2018-06-21T06:56:59.603Z,97.04
2018-06-21T06:57:59.604Z,97.04
2018-06-21T06:58:59.676Z,97.14
2018-06-21T07:00:00.207Z,96.85
2018-06-21T07:00:59.618Z,96.22
2018-06-21T07:01:59.628Z,96.13
2018-06-21T07:02:59.627Z,94.93
2018-06-21T07:03:59.628Z,96.03
2018-06-21T07:04:59.579Z,97.09
2018-06-21T07:06:00.227Z,96.13
2018-06-21T07:06:59.677Z,95.55
2018-06-21T07:07:59.606Z,94.35
2018-06-21T07:08:59.655Z,96.37
2018-06-21T07:09:59.713Z,94.16
2018-06-21T07:10:59.618Z,95.79
2018-06-21T07:11:59.651Z,96.08
2018-06-21T07:12:59.701Z,96.22
2018-06-21T07:13:59.677Z,96.18
2018-06-21T07:14:59.694Z,96.18
2018-06-21T07:15:59.660Z,98.00
2018-06-21T07:17:02.508Z,98.14
2018-06-21T07:18:21.138Z,97.42
2018-06-21T07:18:59.670Z,99.15
2018-06-21T07:19:59.707Z,98.86
2018-06-21T07:21:00.300Z,99.29
2018-06-21T07:22:00.714Z,98.00
2018-06-21T07:22:59.724Z,99.15
2018-06-21T07:24:00.597Z,99.34
2018-06-21T07:24:59.650Z,99.05
2018-06-21T07:25:59.682Z,98.48
2018-06-21T07:26:59.740Z,99.05
2018-06-21T07:27:59.989Z,99.99
2018-06-21T07:28:59.648Z,99.99
2018-06-21T07:29:59.687Z,99.99
2018-06-21T07:30:59.670Z,99.99
2018-06-21T07:32:00.353Z,99.99
2018-06-21T07:32:59.741Z,99.99
2018-06-21T07:33:59.733Z,99.99
2018-06-21T07:34:59.743Z,99.99
2018-06-21T07:35:59.742Z,99.99
2018-06-21T07:36:59.679Z,99.99
2018-06-21T07:37:59.731Z,99.99
2018-06-21T07:39:01.037Z,99.99
2018-06-21T07:40:00.139Z,99.99
2018-06-21T07:40:59.718Z,99.99
2018-06-21T07:41:59.732Z,99.99
2018-06-21T07:42:59.739Z,99.99
2018-06-21T07:43:59.728Z,99.99
2018-06-21T07:44:59.794Z,99.99
2018-06-21T07:45:59.755Z,99.99
2018-06-21T07:46:59.769Z,99.99
2018-06-21T07:47:59.718Z,99.99
2018-06-21T07:49:00.229Z,99.99
2018-06-21T07:49:59.738Z,99.99
2018-06-21T07:50:59.765Z,99.99
2018-06-21T07:51:59.702Z,99.99
2018-06-21T07:52:59.758Z,99.99
2018-06-21T07:53:59.713Z,99.99
2018-06-21T07:54:59.859Z,99.99
2018-06-21T07:55:59.838Z,99.99
2018-06-21T07:56:59.726Z,99.99
2018-06-21T07:57:59.753Z,99.99
2018-06-21T07:58:59.864Z,99.99
2018-06-21T07:59:59.750Z,99.99
2018-06-21T08:00:59.806Z,99.99
2018-06-21T08:02:00.367Z,99.99
2018-06-21T08:02:59.777Z,99.99
2018-06-21T08:04:00.359Z,99.99
2018-06-21T08:04:59.861Z,99.99
2018-06-21T08:05:59.834Z,99.99
2018-06-21T08:06:59.897Z,99.99
2018-06-21T08:07:59.764Z,99.99
2018-06-21T08:08:59.823Z,99.99
2018-06-21T08:10:04.393Z,99.99
2018-06-21T08:10:59.778Z,99.99
2018-06-21T08:11:59.895Z,99.99
2018-06-21T08:12:59.867Z,99.99
2018-06-21T08:13:59.795Z,99.99
2018-06-21T08:14:59.780Z,99.99
2018-06-21T08:15:59.846Z,99.99
2018-06-21T08:16:59.924Z,99.99
2018-06-21T08:17:59.845Z,99.99
2018-06-21T08:18:59.863Z,99.99
2018-06-21T08:20:00.386Z,99.99
2018-06-21T08:20:59.853Z,99.99
2018-06-21T08:21:59.968Z,99.99
2018-06-21T08:23:00.510Z,99.99
2018-06-21T08:23:59.820Z,99.99
2018-06-21T08:25:00.147Z,99.99
2018-06-21T08:25:59.942Z,99.99
2018-06-21T08:26:59.916Z,99.99
2018-06-21T08:27:59.905Z,99.99
2018-06-21T08:28:59.910Z,99.99
2018-06-21T08:30:00.859Z,99.99
2018-06-21T08:31:00.912Z,99.99
2018-06-21T08:32:03.000Z,99.99
2018-06-21T08:33:02.848Z,99.99
2018-06-21T08:33:59.986Z,99.99
2018-06-21T08:35:09.492Z,99.99
2018-06-21T08:36:00.345Z,99.99
2018-06-21T08:37:00.116Z,99.99
2018-06-21T08:37:59.985Z,99.99
2018-06-21T08:39:00.224Z,99.99
2018-06-21T08:40:00.103Z,99.99
2018-06-21T08:41:00.222Z,99.99
2018-06-21T08:41:59.929Z,99.99
2018-06-21T08:43:00.009Z,99.99
2018-06-21T08:43:59.962Z,99.99
2018-06-21T08:45:00.057Z,99.99
2018-06-21T08:46:00.007Z,99.99
2018-06-21T08:47:00.047Z,99.99
2018-06-21T08:47:59.996Z,99.99
2018-06-21T08:49:04.906Z,99.99
2018-06-21T08:49:59.986Z,99.99
2018-06-21T08:50:59.991Z,99.99
2018-06-21T08:52:00.943Z,99.99
2018-06-21T08:53:00.109Z,99.99
2018-06-21T08:54:00.017Z,99.99
2018-06-21T08:55:00.040Z,99.99
2018-06-21T08:56:00.660Z,99.99
2018-06-21T08:57:01.388Z,99.99
2018-06-21T08:58:00.906Z,99.99
2018-06-21T08:59:00.028Z,99.99
2018-06-21T09:00:00.117Z,98.63
2018-06-21T09:01:00.803Z,98.63
2018-06-21T09:02:00.087Z,99.99
2018-06-21T09:03:00.121Z,99.99
2018-06-21T09:04:00.042Z,99.99
2018-06-21T09:05:00.082Z,99.55
2018-06-21T09:06:00.098Z,95.83
2018-06-21T09:07:02.913Z,93.79
2018-06-21T09:08:00.164Z,91.90
2018-06-21T09:09:00.769Z,94.04
2018-06-21T09:10:00.123Z,92.78
2018-06-21T09:11:00.104Z,92.88
2018-06-21T09:12:00.132Z,93.02
2018-06-21T09:13:00.161Z,93.35
2018-06-21T09:14:00.771Z,91.76
2018-06-21T09:15:00.456Z,91.56
2018-06-21T09:16:01.745Z,92.30
2018-06-21T09:17:00.219Z,93.12
2018-06-21T09:18:06.934Z,95.20
2018-06-21T09:19:00.171Z,97.62
2018-06-21T09:20:00.146Z,99.45
2018-06-21T09:21:00.246Z,98.30
2018-06-21T09:22:00.227Z,97.38
2018-06-21T09:23:00.219Z,97.52
2018-06-21T09:24:00.356Z,99.30
2018-06-21T09:25:00.195Z,99.99
2018-06-21T09:26:08.504Z,99.99
2018-06-21T09:27:00.869Z,99.99
2018-06-21T09:28:00.242Z,99.99
2018-06-21T09:29:00.272Z,99.99
2018-06-21T09:30:00.348Z,99.99
2018-06-21T09:31:00.785Z,99.99
2018-06-21T09:32:00.308Z,99.99
2018-06-21T09:33:00.314Z,99.99
2018-06-21T09:34:00.347Z,99.99
2018-06-21T09:35:00.293Z,99.99
2018-06-21T09:36:00.308Z,99.99
2018-06-21T09:37:00.455Z,99.99
2018-06-21T09:38:00.310Z,99.99
2018-06-21T09:39:00.263Z,99.99
2018-06-21T09:40:00.293Z,99.99
2018-06-21T09:41:00.367Z,99.99
2018-06-21T09:42:00.296Z,99.99
2018-06-21T09:43:00.322Z,99.99
2018-06-21T09:44:03.821Z,99.99
2018-06-21T09:45:00.328Z,99.99
2018-06-21T09:46:00.415Z,99.79
2018-06-21T09:47:00.797Z,98.73
2018-06-21T09:48:00.422Z,99.26
2018-06-21T09:49:00.405Z,94.09
2018-06-21T09:50:00.380Z,90.36
2018-06-21T09:51:00.419Z,87.54
2018-06-21T09:52:00.388Z,87.75
2018-06-21T09:53:00.438Z,88.81
2018-06-21T09:54:00.474Z,85.28
2018-06-21T09:55:00.430Z,85.71
2018-06-21T09:56:00.435Z,84.83
2018-06-21T09:57:00.424Z,85.51
2018-06-21T09:58:01.305Z,84.19
2018-06-21T09:59:00.474Z,87.78
2018-06-21T10:00:00.931Z,89.31
2018-06-21T10:01:00.514Z,87.09
2018-06-21T10:02:00.625Z,89.76
2018-06-21T10:03:01.450Z,89.61
2018-06-21T10:04:00.531Z,89.23
2018-06-21T10:05:00.542Z,90.53
2018-06-21T10:06:00.792Z,90.34
2018-06-21T10:07:00.690Z,94.54
2018-06-21T10:08:00.551Z,95.26
2018-06-21T10:09:01.312Z,94.97
2018-06-21T10:10:00.645Z,99.16
2018-06-21T10:11:00.688Z,98.92
2018-06-21T10:12:01.569Z,98.29
2018-06-21T10:13:00.930Z,93.53
2018-06-21T10:14:00.679Z,90.83
2018-06-21T10:15:01.311Z,90.02
2018-06-21T10:16:00.703Z,89.78
2018-06-21T10:17:00.654Z,86.25
2018-06-21T10:18:00.669Z,83.69
2018-06-21T10:19:01.305Z,82.46
2018-06-21T10:20:00.679Z,79.02
2018-06-21T10:21:00.726Z,77.63
2018-06-21T10:22:00.726Z,76.03
2018-06-21T10:23:00.702Z,77.19
2018-06-21T10:24:00.806Z,76.20
2018-06-21T10:25:00.817Z,76.37
2018-06-21T10:26:00.758Z,75.24
2018-06-21T10:27:00.734Z,74.38
2018-06-21T10:28:00.789Z,71.28
2018-06-21T10:29:00.794Z,69.79
2018-06-21T10:30:06.672Z,70.76
2018-06-21T10:31:02.340Z,70.98
2018-06-21T10:32:00.841Z,70.21
2018-06-21T10:33:00.963Z,67.02
2018-06-21T10:34:00.927Z,68.59
2018-06-21T10:35:00.939Z,67.59
2018-06-21T10:36:00.969Z,68.66
2018-06-21T10:37:00.924Z,69.43
2018-06-21T10:38:00.891Z,69.01
2018-06-21T10:39:01.003Z,71.55
2018-06-21T10:40:00.911Z,72.61
2018-06-21T10:41:01.428Z,73.61
2018-06-21T10:42:08.326Z,73.77
2018-06-21T10:43:11.545Z,75.30
2018-06-21T10:44:00.954Z,76.51
2018-06-21T10:45:01.058Z,77.51
2018-06-21T10:46:01.838Z,76.36
2018-06-21T10:47:01.034Z,76.55
2018-06-21T10:48:01.040Z,77.55
2018-06-21T10:49:01.112Z,79.33
2018-06-21T10:50:01.055Z,77.78
2018-06-21T10:51:01.024Z,74.14
2018-06-21T10:52:01.099Z,73.53
2018-06-21T10:53:01.024Z,73.08
2018-06-21T10:54:01.055Z,74.05
2018-06-21T10:55:01.836Z,73.85
2018-06-21T10:56:01.039Z,73.57
2018-06-21T10:57:01.084Z,71.54
2018-06-21T10:58:01.090Z,72.21
2018-06-21T10:59:01.061Z,71.67
2018-06-21T11:00:01.151Z,70.61
2018-06-21T11:01:01.081Z,70.67
2018-06-21T11:02:01.081Z,70.76
2018-06-21T11:03:01.239Z,72.50
2018-06-21T11:04:01.072Z,72.08
2018-06-21T11:05:01.082Z,71.89
2018-06-21T11:06:01.066Z,73.37
2018-06-21T11:07:01.140Z,72.99
2018-06-21T11:08:01.122Z,72.41
2018-06-21T11:09:01.125Z,74.27
2018-06-21T11:10:01.156Z,74.08
2018-06-21T11:11:01.105Z,72.67
2018-06-21T11:12:01.163Z,73.77
2018-06-21T11:13:01.148Z,69.04
2018-06-21T11:14:01.191Z,71.74
2018-06-21T11:15:01.243Z,70.68
2018-06-21T11:16:01.325Z,68.87
2018-06-21T11:17:01.332Z,69.09
2018-06-21T11:18:01.219Z,71.12
2018-06-21T11:19:01.263Z,70.79
2018-06-21T11:20:01.191Z,71.85
2018-06-21T11:21:01.140Z,72.01
2018-06-21T11:22:01.244Z,73.94
2018-06-21T11:23:01.880Z,74.67
2018-06-21T11:24:01.235Z,76.25
2018-06-21T11:25:01.383Z,75.63
2018-06-21T11:26:01.992Z,76.21
2018-06-21T11:27:01.212Z,76.88
2018-06-21T11:28:01.269Z,76.50
2018-06-21T11:29:01.296Z,77.36
2018-06-21T11:30:01.897Z,74.80
2018-06-21T11:31:01.341Z,74.07
2018-06-21T11:32:01.273Z,73.97
2018-06-21T11:33:01.484Z,73.78
2018-06-21T11:34:02.059Z,72.95
2018-06-21T11:35:01.269Z,73.24
2018-06-21T11:36:01.852Z,74.01
2018-06-21T11:37:01.373Z,74.16
2018-06-21T11:38:01.227Z,73.53
2018-06-21T11:39:01.381Z,73.72
2018-06-21T11:40:01.400Z,74.33
2018-06-21T11:41:01.295Z,74.10
2018-06-21T11:42:01.306Z,74.01
2018-06-21T11:43:01.338Z,73.24
2018-06-21T11:44:01.286Z,74.14
2018-06-21T11:45:01.861Z,72.27
2018-06-21T11:46:01.301Z,71.41
2018-06-21T11:47:01.316Z,69.45
2018-06-21T11:48:01.331Z,72.27
2018-06-21T11:49:01.411Z,73.57
2018-06-21T11:50:02.044Z,71.06
2018-06-21T11:51:01.467Z,69.67
2018-06-21T11:52:01.421Z,69.64
2018-06-21T11:53:01.356Z,72.14
2018-06-21T11:54:01.372Z,73.10
2018-06-21T11:55:01.922Z,73.30
2018-06-21T11:56:02.226Z,75.23
2018-06-21T11:57:02.496Z,73.78
2018-06-21T11:58:02.863Z,73.58
2018-06-21T11:59:01.644Z,73.30
2018-06-21T12:00:01.427Z,71.98
2018-06-21T12:01:01.693Z,71.41
2018-06-21T12:02:01.624Z,71.89
2018-06-21T12:03:01.452Z,71.12
2018-06-21T12:04:01.641Z,71.83
2018-06-21T12:05:01.417Z,69.48
2018-06-21T12:06:01.356Z,69.61
2018-06-21T12:07:01.370Z,71.73
2018-06-21T12:08:01.501Z,69.23
2018-06-21T12:09:02.080Z,67.36
2018-06-21T12:10:04.008Z,69.25
2018-06-21T12:11:03.980Z,72.05
2018-06-21T12:12:01.469Z,71.41
2018-06-21T12:13:01.449Z,71.28
2018-06-21T12:14:01.386Z,72.33
2018-06-21T12:15:01.503Z,73.07
2018-06-21T12:16:01.518Z,72.11
2018-06-21T12:17:01.422Z,71.72
2018-06-21T12:18:01.872Z,69.99
2018-06-21T12:19:01.425Z,70.56
2018-06-21T12:20:01.441Z,69.25
2018-06-21T12:21:01.457Z,69.15
2018-06-21T12:22:01.472Z,70.12
2018-06-21T12:23:02.068Z,68.99
2018-06-21T12:24:01.443Z,69.38
2018-06-21T12:25:01.594Z,69.23
2018-06-21T12:26:01.514Z,68.93
2018-06-21T12:27:01.415Z,68.74
2018-06-21T12:28:01.491Z,68.04
2018-06-21T12:29:01.587Z,68.80
2018-06-21T12:30:01.489Z,69.48
2018-06-21T12:31:01.963Z,68.90
2018-06-21T12:32:08.111Z,67.94
2018-06-21T12:33:04.029Z,67.90
2018-06-21T12:34:01.931Z,67.94
2018-06-21T12:35:01.483Z,68.04
2018-06-21T12:36:01.562Z,68.13
2018-06-21T12:37:01.534Z,67.74
2018-06-21T12:38:01.677Z,67.65
2018-06-21T12:39:01.576Z,67.46
2018-06-21T12:40:02.132Z,65.33
2018-06-21T12:41:01.539Z,65.50
2018-06-21T12:42:01.938Z,65.78
2018-06-21T12:43:01.577Z,63.76
2018-06-21T12:44:02.154Z,66.20
2018-06-21T12:45:01.532Z,64.56
2018-06-21T12:46:01.703Z,66.01
2018-06-21T12:47:01.566Z,66.11
2018-06-21T12:48:01.511Z,65.63
2018-06-21T12:50:01.547Z,66.52
2018-06-21T12:51:05.056Z,65.33
2018-06-21T12:52:02.483Z,64.28
2018-06-21T12:53:02.290Z,64.89
2018-06-21T12:54:01.977Z,66.94
2018-06-21T12:55:04.260Z,65.98